Terminal Aerodrome Forecast
Issued by NWS

Home | Current Version | Previous Version | Text Only | Print | Product List | Glossary On
Versions: 1 2 3 4 5 6 7 8 9 10 11 12 13 14 15 16 17 18 19 20 21 22
000
FTUS46 KMTR 231100 RRA
TAFOAK
TAF
KOAK 231146Z 2312/2418 34003KT P6SM SCT200
     FM231800 31008KT P6SM SCT200
     FM240300 29007KT P6SM SCT200=

USA.gov is the U.S. government's official web portal to all federal, state and local government web resources and services.